sensor_id;sensor_type;location;lat;lon;timestamp;temperature;humidity
69628;DHT22;56850;51.984;5.088;2023-04-03T00:00:50;8.20;53.00
69628;DHT22;56850;51.984;5.088;2023-04-03T00:03:18;8.10;53.00
69628;DHT22;56850;51.984;5.088;2023-04-03T00:05:45;8.10;53.00
69628;DHT22;56850;51.984;5.088;2023-04-03T00:08:13;8.00;53.00
69628;DHT22;56850;51.984;5.088;2023-04-03T00:10:40;8.00;53.10
69628;DHT22;56850;51.984;5.088;2023-04-03T00:13:08;8.00;53.20
69628;DHT22;56850;51.984;5.088;2023-04-03T00:15:36;8.00;53.40
69628;DHT22;56850;51.984;5.088;2023-04-03T00:18:04;7.90;53.30
69628;DHT22;56850;51.984;5.088;2023-04-03T00:20:31;7.90;53.20
69628;DHT22;56850;51.984;5.088;2023-04-03T00:22:59;7.80;53.30
69628;DHT22;56850;51.984;5.088;2023-04-03T00:25:27;7.80;53.30
69628;DHT22;56850;51.984;5.088;2023-04-03T00:27:54;7.80;53.40
69628;DHT22;56850;51.984;5.088;2023-04-03T00:30:23;7.70;53.50
69628;DHT22;56850;51.984;5.088;2023-04-03T00:32:51;7.70;53.60
69628;DHT22;56850;51.984;5.088;2023-04-03T00:35:20;7.70;53.50
69628;DHT22;56850;51.984;5.088;2023-04-03T00:37:47;7.60;53.70
69628;DHT22;56850;51.984;5.088;2023-04-03T00:40:15;7.60;53.80
69628;DHT22;56850;51.984;5.088;2023-04-03T00:42:43;7.60;53.70
69628;DHT22;56850;51.984;5.088;2023-04-03T00:47:40;7.50;53.90
69628;DHT22;56850;51.984;5.088;2023-04-03T00:50:07;7.40;54.00
69628;DHT22;56850;51.984;5.088;2023-04-03T00:52:34;7.40;54.00
69628;DHT22;56850;51.984;5.088;2023-04-03T00:55:05;7.40;54.10
69628;DHT22;56850;51.984;5.088;2023-04-03T00:57:33;7.40;54.20
69628;DHT22;56850;51.984;5.088;2023-04-03T01:00:07;7.30;54.20
69628;DHT22;56850;51.984;5.088;2023-04-03T01:02:36;7.30;54.40
69628;DHT22;56850;51.984;5.088;2023-04-03T01:05:04;7.30;54.40
69628;DHT22;56850;51.984;5.088;2023-04-03T01:07:31;7.20;54.50
69628;DHT22;56850;51.984;5.088;2023-04-03T01:10:04;7.20;54.50
69628;DHT22;56850;51.984;5.088;2023-04-03T01:12:37;7.20;54.50
69628;DHT22;56850;51.984;5.088;2023-04-03T01:15:15;7.20;54.60
69628;DHT22;56850;51.984;5.088;2023-04-03T01:17:48;7.20;54.80
69628;DHT22;56850;51.984;5.088;2023-04-03T01:25:48;7.10;54.90
69628;DHT22;56850;51.984;5.088;2023-04-03T01:28:19;7.10;55.10
69628;DHT22;56850;51.984;5.088;2023-04-03T01:33:35;7.10;55.10
69628;DHT22;56850;51.984;5.088;2023-04-03T01:36:03;7.10;55.10
69628;DHT22;56850;51.984;5.088;2023-04-03T01:38:31;7.00;55.20
69628;DHT22;56850;51.984;5.088;2023-04-03T01:40:58;7.00;55.20
69628;DHT22;56850;51.984;5.088;2023-04-03T01:43:25;7.00;55.30
69628;DHT22;56850;51.984;5.088;2023-04-03T01:45:51;6.90;55.40
69628;DHT22;56850;51.984;5.088;2023-04-03T01:48:21;6.90;55.50
69628;DHT22;56850;51.984;5.088;2023-04-03T01:50:48;6.90;55.60
69628;DHT22;56850;51.984;5.088;2023-04-03T01:53:15;6.90;55.60
69628;DHT22;56850;51.984;5.088;2023-04-03T01:55:41;6.90;55.70
69628;DHT22;56850;51.984;5.088;2023-04-03T01:58:08;6.90;55.70
69628;DHT22;56850;51.984;5.088;2023-04-03T02:00:36;6.90;55.80
69628;DHT22;56850;51.984;5.088;2023-04-03T02:03:03;6.80;55.90
69628;DHT22;56850;51.984;5.088;2023-04-03T02:05:30;6.80;56.00
69628;DHT22;56850;51.984;5.088;2023-04-03T02:07:57;6.80;56.00
69628;DHT22;56850;51.984;5.088;2023-04-03T02:10:24;6.80;56.00
69628;DHT22;56850;51.984;5.088;2023-04-03T02:12:51;6.80;56.10
69628;DHT22;56850;51.984;5.088;2023-04-03T02:15:18;6.80;56.20
69628;DHT22;56850;51.984;5.088;2023-04-03T02:17:46;6.70;56.20
69628;DHT22;56850;51.984;5.088;2023-04-03T02:20:13;6.70;56.30
69628;DHT22;56850;51.984;5.088;2023-04-03T02:22:41;6.70;56.40
69628;DHT22;56850;51.984;5.088;2023-04-03T02:25:08;6.60;56.50
69628;DHT22;56850;51.984;5.088;2023-04-03T02:27:36;6.60;56.50
69628;DHT22;56850;51.984;5.088;2023-04-03T02:30:04;6.60;56.60
69628;DHT22;56850;51.984;5.088;2023-04-03T02:32:31;6.60;56.70
69628;DHT22;56850;51.984;5.088;2023-04-03T02:34:59;6.60;56.70
69628;DHT22;56850;51.984;5.088;2023-04-03T02:37:27;6.60;56.70
69628;DHT22;56850;51.984;5.088;2023-04-03T02:39:54;6.60;56.90
69628;DHT22;56850;51.984;5.088;2023-04-03T02:42:21;6.50;57.00
69628;DHT22;56850;51.984;5.088;2023-04-03T02:44:48;6.50;57.10
69628;DHT22;56850;51.984;5.088;2023-04-03T02:47:15;6.60;57.10
69628;DHT22;56850;51.984;5.088;2023-04-03T02:49:42;6.60;57.20
69628;DHT22;56850;51.984;5.088;2023-04-03T02:52:13;6.60;57.30
69628;DHT22;56850;51.984;5.088;2023-04-03T02:54:40;6.60;57.30
69628;DHT22;56850;51.984;5.088;2023-04-03T02:57:09;6.60;57.40
69628;DHT22;56850;51.984;5.088;2023-04-03T02:59:37;6.60;57.40
69628;DHT22;56850;51.984;5.088;2023-04-03T03:02:09;6.60;57.40
69628;DHT22;56850;51.984;5.088;2023-04-03T03:04:36;6.50;57.50
69628;DHT22;56850;51.984;5.088;2023-04-03T03:07:03;6.50;57.50
69628;DHT22;56850;51.984;5.088;2023-04-03T03:09:31;6.50;57.50
69628;DHT22;56850;51.984;5.088;2023-04-03T03:11:58;6.50;57.60
69628;DHT22;56850;51.984;5.088;2023-04-03T03:14:25;6.50;57.70
69628;DHT22;56850;51.984;5.088;2023-04-03T03:16:52;6.50;57.80
69628;DHT22;56850;51.984;5.088;2023-04-03T03:19:19;6.50;57.90
69628;DHT22;56850;51.984;5.088;2023-04-03T03:21:46;6.50;57.80
69628;DHT22;56850;51.984;5.088;2023-04-03T03:24:13;6.50;57.80
69628;DHT22;56850;51.984;5.088;2023-04-03T03:26:40;6.50;57.70
69628;DHT22;56850;51.984;5.088;2023-04-03T03:29:07;6.50;57.80
69628;DHT22;56850;51.984;5.088;2023-04-03T03:31:34;6.50;57.80
69628;DHT22;56850;51.984;5.088;2023-04-03T03:34:02;6.40;57.90
69628;DHT22;56850;51.984;5.088;2023-04-03T03:36:28;6.30;58.00
69628;DHT22;56850;51.984;5.088;2023-04-03T03:38:56;6.30;58.10
69628;DHT22;56850;51.984;5.088;2023-04-03T03:41:23;6.30;58.20
69628;DHT22;56850;51.984;5.088;2023-04-03T03:43:50;6.30;58.30
69628;DHT22;56850;51.984;5.088;2023-04-03T03:46:17;6.20;58.40
69628;DHT22;56850;51.984;5.088;2023-04-03T03:48:44;6.20;58.40
69628;DHT22;56850;51.984;5.088;2023-04-03T03:51:11;6.20;58.50
69628;DHT22;56850;51.984;5.088;2023-04-03T03:53:38;6.20;58.60
69628;DHT22;56850;51.984;5.088;2023-04-03T03:56:09;6.20;58.80
69628;DHT22;56850;51.984;5.088;2023-04-03T03:58:38;6.20;58.70
69628;DHT22;56850;51.984;5.088;2023-04-03T04:01:06;6.10;58.90
69628;DHT22;56850;51.984;5.088;2023-04-03T04:03:39;6.10;58.90
69628;DHT22;56850;51.984;5.088;2023-04-03T04:06:08;6.10;59.00
69628;DHT22;56850;51.984;5.088;2023-04-03T04:08:36;6.10;59.10
69628;DHT22;56850;51.984;5.088;2023-04-03T04:11:05;6.10;59.10
69628;DHT22;56850;51.984;5.088;2023-04-03T04:13:33;6.10;59.20
69628;DHT22;56850;51.984;5.088;2023-04-03T04:16:00;6.10;59.30
69628;DHT22;56850;51.984;5.088;2023-04-03T04:18:28;6.10;59.10
69628;DHT22;56850;51.984;5.088;2023-04-03T04:20:56;6.10;59.20
69628;DHT22;56850;51.984;5.088;2023-04-03T04:23:23;6.00;59.20
69628;DHT22;56850;51.984;5.088;2023-04-03T04:25:51;6.00;59.30
69628;DHT22;56850;51.984;5.088;2023-04-03T04:28:19;6.00;59.50
69628;DHT22;56850;51.984;5.088;2023-04-03T04:30:49;6.00;59.50
69628;DHT22;56850;51.984;5.088;2023-04-03T04:33:17;6.00;59.60
69628;DHT22;56850;51.984;5.088;2023-04-03T04:35:47;5.90;59.60
69628;DHT22;56850;51.984;5.088;2023-04-03T04:38:16;5.90;59.70
69628;DHT22;56850;51.984;5.088;2023-04-03T04:40:43;5.90;59.80
69628;DHT22;56850;51.984;5.088;2023-04-03T04:43:10;5.90;59.90
69628;DHT22;56850;51.984;5.088;2023-04-03T04:45:42;5.90;60.00
69628;DHT22;56850;51.984;5.088;2023-04-03T04:48:09;5.90;60.00
69628;DHT22;56850;51.984;5.088;2023-04-03T04:50:37;5.90;60.00
69628;DHT22;56850;51.984;5.088;2023-04-03T04:53:04;5.90;60.10
69628;DHT22;56850;51.984;5.088;2023-04-03T04:55:31;5.90;60.00
69628;DHT22;56850;51.984;5.088;2023-04-03T04:57:58;5.80;60.10
69628;DHT22;56850;51.984;5.088;2023-04-03T05:00:25;5.80;60.20
69628;DHT22;56850;51.984;5.088;2023-04-03T05:02:52;5.80;60.20
69628;DHT22;56850;51.984;5.088;2023-04-03T05:05:19;5.70;60.30
69628;DHT22;56850;51.984;5.088;2023-04-03T05:07:49;5.70;60.40
69628;DHT22;56850;51.984;5.088;2023-04-03T05:10:16;5.60;60.50
69628;DHT22;56850;51.984;5.088;2023-04-03T05:12:44;5.60;60.70
69628;DHT22;56850;51.984;5.088;2023-04-03T05:15:11;5.60;60.80
69628;DHT22;56850;51.984;5.088;2023-04-03T05:17:38;5.50;61.00
69628;DHT22;56850;51.984;5.088;2023-04-03T05:20:08;5.50;61.00
69628;DHT22;56850;51.984;5.088;2023-04-03T05:22:35;5.50;61.10
69628;DHT22;56850;51.984;5.088;2023-04-03T05:25:06;5.50;61.20
69628;DHT22;56850;51.984;5.088;2023-04-03T05:27:34;5.50;61.20
69628;DHT22;56850;51.984;5.088;2023-04-03T05:30:02;5.40;61.20
69628;DHT22;56850;51.984;5.088;2023-04-03T05:32:32;5.40;61.40
69628;DHT22;56850;51.984;5.088;2023-04-03T05:35:20;5.40;61.40
69628;DHT22;56850;51.984;5.088;2023-04-03T05:37:50;5.40;61.60
69628;DHT22;56850;51.984;5.088;2023-04-03T05:40:18;5.40;61.60
69628;DHT22;56850;51.984;5.088;2023-04-03T05:42:48;5.30;61.80
69628;DHT22;56850;51.984;5.088;2023-04-03T05:45:17;5.40;61.90
69628;DHT22;56850;51.984;5.088;2023-04-03T05:47:45;5.40;62.00
69628;DHT22;56850;51.984;5.088;2023-04-03T05:50:12;5.40;62.00
69628;DHT22;56850;51.984;5.088;2023-04-03T05:52:43;5.50;62.10
69628;DHT22;56850;51.984;5.088;2023-04-03T05:55:11;5.50;62.00
69628;DHT22;56850;51.984;5.088;2023-04-03T05:57:39;5.50;62.10
69628;DHT22;56850;51.984;5.088;2023-04-03T06:00:12;5.50;62.10
69628;DHT22;56850;51.984;5.088;2023-04-03T06:02:47;5.50;62.10
69628;DHT22;56850;51.984;5.088;2023-04-03T06:05:18;5.50;62.10
69628;DHT22;56850;51.984;5.088;2023-04-03T06:07:45;5.50;62.10
69628;DHT22;56850;51.984;5.088;2023-04-03T06:10:15;5.50;62.20
69628;DHT22;56850;51.984;5.088;2023-04-03T06:12:42;5.50;62.20
69628;DHT22;56850;51.984;5.088;2023-04-03T06:15:09;5.50;62.20
69628;DHT22;56850;51.984;5.088;2023-04-03T06:17:39;5.50;62.30
69628;DHT22;56850;51.984;5.088;2023-04-03T06:20:07;5.50;62.30
69628;DHT22;56850;51.984;5.088;2023-04-03T06:22:34;5.50;62.40
69628;DHT22;56850;51.984;5.088;2023-04-03T06:25:01;5.60;62.40
69628;DHT22;56850;51.984;5.088;2023-04-03T06:27:28;5.60;62.30
69628;DHT22;56850;51.984;5.088;2023-04-03T06:29:55;5.60;62.30
69628;DHT22;56850;51.984;5.088;2023-04-03T06:32:22;5.60;62.20
69628;DHT22;56850;51.984;5.088;2023-04-03T06:34:49;5.50;62.20
69628;DHT22;56850;51.984;5.088;2023-04-03T06:37:18;5.50;62.30
69628;DHT22;56850;51.984;5.088;2023-04-03T06:39:46;5.60;62.30
69628;DHT22;56850;51.984;5.088;2023-04-03T06:42:13;5.60;62.20
69628;DHT22;56850;51.984;5.088;2023-04-03T06:44:51;5.50;62.20
69628;DHT22;56850;51.984;5.088;2023-04-03T06:47:18;5.60;62.30
69628;DHT22;56850;51.984;5.088;2023-04-03T06:49:46;5.60;62.40
69628;DHT22;56850;51.984;5.088;2023-04-03T06:52:13;5.70;62.20
69628;DHT22;56850;51.984;5.088;2023-04-03T06:54:40;5.70;62.10
69628;DHT22;56850;51.984;5.088;2023-04-03T06:57:07;5.70;62.00
69628;DHT22;56850;51.984;5.088;2023-04-03T06:59:35;5.70;61.90
69628;DHT22;56850;51.984;5.088;2023-04-03T07:02:03;5.70;62.00
69628;DHT22;56850;51.984;5.088;2023-04-03T07:04:30;5.70;61.90
69628;DHT22;56850;51.984;5.088;2023-04-03T07:06:57;5.70;61.90
69628;DHT22;56850;51.984;5.088;2023-04-03T07:09:24;5.70;61.80
69628;DHT22;56850;51.984;5.088;2023-04-03T07:11:51;5.80;61.90
69628;DHT22;56850;51.984;5.088;2023-04-03T07:14:18;5.80;61.90
69628;DHT22;56850;51.984;5.088;2023-04-03T07:16:44;5.90;61.90
69628;DHT22;56850;51.984;5.088;2023-04-03T07:19:11;5.90;62.00
69628;DHT22;56850;51.984;5.088;2023-04-03T07:21:38;6.00;61.80
69628;DHT22;56850;51.984;5.088;2023-04-03T07:24:05;6.00;61.90
69628;DHT22;56850;51.984;5.088;2023-04-03T07:26:35;6.20;61.60
69628;DHT22;56850;51.984;5.088;2023-04-03T07:29:02;6.20;61.60
69628;DHT22;56850;51.984;5.088;2023-04-03T07:31:29;6.30;61.40
69628;DHT22;56850;51.984;5.088;2023-04-03T07:33:56;6.40;61.40
69628;DHT22;56850;51.984;5.088;2023-04-03T07:36:23;6.50;61.20
69628;DHT22;56850;51.984;5.088;2023-04-03T07:38:50;6.60;61.00
69628;DHT22;56850;51.984;5.088;2023-04-03T07:41:19;6.70;60.90
69628;DHT22;56850;51.984;5.088;2023-04-03T07:43:49;6.80;60.50
69628;DHT22;56850;51.984;5.088;2023-04-03T07:46:16;6.90;60.50
69628;DHT22;56850;51.984;5.088;2023-04-03T07:48:44;7.00;60.30
69628;DHT22;56850;51.984;5.088;2023-04-03T07:51:11;7.00;60.00
69628;DHT22;56850;51.984;5.088;2023-04-03T07:53:39;7.10;59.80
69628;DHT22;56850;51.984;5.088;2023-04-03T07:56:07;7.20;59.80
69628;DHT22;56850;51.984;5.088;2023-04-03T07:58:34;7.30;59.40
69628;DHT22;56850;51.984;5.088;2023-04-03T08:01:01;7.40;59.30
69628;DHT22;56850;51.984;5.088;2023-04-03T08:03:28;7.40;59.00
69628;DHT22;56850;51.984;5.088;2023-04-03T08:06:02;7.50;58.90
69628;DHT22;56850;51.984;5.088;2023-04-03T08:08:31;7.60;58.60
69628;DHT22;56850;51.984;5.088;2023-04-03T08:11:00;7.70;58.70
69628;DHT22;56850;51.984;5.088;2023-04-03T08:13:30;7.80;58.20
69628;DHT22;56850;51.984;5.088;2023-04-03T08:15:57;8.00;58.00
69628;DHT22;56850;51.984;5.088;2023-04-03T08:18:25;8.00;57.80
69628;DHT22;56850;51.984;5.088;2023-04-03T08:20:53;8.10;57.20
69628;DHT22;56850;51.984;5.088;2023-04-03T08:23:20;8.20;56.70
69628;DHT22;56850;51.984;5.088;2023-04-03T08:25:47;8.20;56.00
69628;DHT22;56850;51.984;5.088;2023-04-03T08:28:14;8.30;56.00
69628;DHT22;56850;51.984;5.088;2023-04-03T08:30:42;8.40;55.80
69628;DHT22;56850;51.984;5.088;2023-04-03T08:33:09;8.50;55.60
69628;DHT22;56850;51.984;5.088;2023-04-03T08:35:40;8.60;55.20
69628;DHT22;56850;51.984;5.088;2023-04-03T08:38:09;8.70;54.70
69628;DHT22;56850;51.984;5.088;2023-04-03T08:40:37;8.70;54.30
69628;DHT22;56850;51.984;5.088;2023-04-03T08:43:30;8.80;54.30
69628;DHT22;56850;51.984;5.088;2023-04-03T08:46:03;8.90;54.10
69628;DHT22;56850;51.984;5.088;2023-04-03T08:48:36;9.00;53.50
69628;DHT22;56850;51.984;5.088;2023-04-03T08:51:13;9.10;52.90
69628;DHT22;56850;51.984;5.088;2023-04-03T08:53:54;9.20;52.00
69628;DHT22;56850;51.984;5.088;2023-04-03T08:56:24;9.30;51.80
69628;DHT22;56850;51.984;5.088;2023-04-03T08:58:56;9.30;51.40
69628;DHT22;56850;51.984;5.088;2023-04-03T09:01:27;9.50;51.50
69628;DHT22;56850;51.984;5.088;2023-04-03T09:03:56;9.60;50.60
69628;DHT22;56850;51.984;5.088;2023-04-03T09:06:31;9.70;50.00
69628;DHT22;56850;51.984;5.088;2023-04-03T09:09:13;9.80;49.80
69628;DHT22;56850;51.984;5.088;2023-04-03T09:11:47;9.90;48.60
69628;DHT22;56850;51.984;5.088;2023-04-03T09:16:56;10.20;47.10
69628;DHT22;56850;51.984;5.088;2023-04-03T09:22:28;10.40;45.30
69628;DHT22;56850;51.984;5.088;2023-04-03T09:25:17;10.50;45.30
69628;DHT22;56850;51.984;5.088;2023-04-03T09:27:45;10.60;44.20
69628;DHT22;56850;51.984;5.088;2023-04-03T09:30:14;10.70;43.30
69628;DHT22;56850;51.984;5.088;2023-04-03T09:32:44;10.80;42.70
69628;DHT22;56850;51.984;5.088;2023-04-03T09:38:18;11.00;41.90
69628;DHT22;56850;51.984;5.088;2023-04-03T09:40:48;11.10;41.10
69628;DHT22;56850;51.984;5.088;2023-04-03T09:43:23;11.10;40.20
69628;DHT22;56850;51.984;5.088;2023-04-03T09:45:51;11.20;39.60
69628;DHT22;56850;51.984;5.088;2023-04-03T09:48:24;11.20;38.70
69628;DHT22;56850;51.984;5.088;2023-04-03T09:50:53;11.30;38.90
69628;DHT22;56850;51.984;5.088;2023-04-03T09:53:38;11.30;38.90
69628;DHT22;56850;51.984;5.088;2023-04-03T10:01:26;11.50;37.10
69628;DHT22;56850;51.984;5.088;2023-04-03T10:04:04;11.60;36.60
69628;DHT22;56850;51.984;5.088;2023-04-03T10:06:34;11.70;36.00
69628;DHT22;56850;51.984;5.088;2023-04-03T10:09:39;11.70;35.90
69628;DHT22;56850;51.984;5.088;2023-04-03T10:12:12;11.80;35.70
69628;DHT22;56850;51.984;5.088;2023-04-03T10:14:58;11.80;35.20
69628;DHT22;56850;51.984;5.088;2023-04-03T10:20:31;11.90;35.10
69628;DHT22;56850;51.984;5.088;2023-04-03T10:23:21;12.00;34.80
69628;DHT22;56850;51.984;5.088;2023-04-03T10:31:22;12.30;34.20
69628;DHT22;56850;51.984;5.088;2023-04-03T10:36:52;12.40;32.40
69628;DHT22;56850;51.984;5.088;2023-04-03T10:39:43;12.50;32.30
69628;DHT22;56850;51.984;5.088;2023-04-03T10:42:28;12.60;32.00
69628;DHT22;56850;51.984;5.088;2023-04-03T10:45:15;12.60;32.20
69628;DHT22;56850;51.984;5.088;2023-04-03T10:58:54;12.90;31.20
69628;DHT22;56850;51.984;5.088;2023-04-03T11:01:30;13.00;30.40
69628;DHT22;56850;51.984;5.088;2023-04-03T11:04:00;13.00;30.10
69628;DHT22;56850;51.984;5.088;2023-04-03T11:06:45;13.10;30.30
69628;DHT22;56850;51.984;5.088;2023-04-03T11:09:31;13.10;30.30
69628;DHT22;56850;51.984;5.088;2023-04-03T11:12:12;13.20;30.20
69628;DHT22;56850;51.984;5.088;2023-04-03T11:14:40;13.30;30.50
69628;DHT22;56850;51.984;5.088;2023-04-03T11:22:39;13.50;30.30
69628;DHT22;56850;51.984;5.088;2023-04-03T11:27:48;13.60;29.60
69628;DHT22;56850;51.984;5.088;2023-04-03T11:30:25;13.60;29.80
69628;DHT22;56850;51.984;5.088;2023-04-03T11:35:21;13.90;30.20
69628;DHT22;56850;51.984;5.088;2023-04-03T11:37:51;13.90;29.60
69628;DHT22;56850;51.984;5.088;2023-04-03T11:40:28;13.90;29.60
69628;DHT22;56850;51.984;5.088;2023-04-03T11:46:09;14.00;29.40
69628;DHT22;56850;51.984;5.088;2023-04-03T11:53:40;14.00;29.90
69628;DHT22;56850;51.984;5.088;2023-04-03T12:04:16;14.40;29.90
69628;DHT22;56850;51.984;5.088;2023-04-03T12:09:26;14.50;29.90
69628;DHT22;56850;51.984;5.088;2023-04-03T12:11:55;14.50;29.80
69628;DHT22;56850;51.984;5.088;2023-04-03T12:14:24;14.60;29.90
69628;DHT22;56850;51.984;5.088;2023-04-03T12:16:55;14.60;29.60
69628;DHT22;56850;51.984;5.088;2023-04-03T12:22:11;14.70;30.30
69628;DHT22;56850;51.984;5.088;2023-04-03T12:24:40;14.80;30.00
69628;DHT22;56850;51.984;5.088;2023-04-03T12:27:25;14.80;30.00
69628;DHT22;56850;51.984;5.088;2023-04-03T12:30:26;14.80;30.10
69628;DHT22;56850;51.984;5.088;2023-04-03T12:36:10;15.00;30.30
69628;DHT22;56850;51.984;5.088;2023-04-03T12:39:05;15.00;29.70
69628;DHT22;56850;51.984;5.088;2023-04-03T12:41:37;15.00;30.20
69628;DHT22;56850;51.984;5.088;2023-04-03T12:44:40;15.10;30.10
69628;DHT22;56850;51.984;5.088;2023-04-03T12:47:38;15.20;30.20
69628;DHT22;56850;51.984;5.088;2023-04-03T12:50:30;15.30;30.10
69628;DHT22;56850;51.984;5.088;2023-04-03T12:55:40;15.40;29.80
69628;DHT22;56850;51.984;5.088;2023-04-03T13:00:42;15.50;29.30
69628;DHT22;56850;51.984;5.088;2023-04-03T13:03:22;15.50;29.40
69628;DHT22;56850;51.984;5.088;2023-04-03T13:05:51;15.50;29.50
69628;DHT22;56850;51.984;5.088;2023-04-03T13:08:19;15.50;29.50
69628;DHT22;56850;51.984;5.088;2023-04-03T13:10:55;15.60;29.40
69628;DHT22;56850;51.984;5.088;2023-04-03T13:13:23;15.70;29.10
69628;DHT22;56850;51.984;5.088;2023-04-03T13:15:50;15.70;29.10
69628;DHT22;56850;51.984;5.088;2023-04-03T13:18:32;15.70;28.90
69628;DHT22;56850;51.984;5.088;2023-04-03T13:23:30;15.70;29.10
69628;DHT22;56850;51.984;5.088;2023-04-03T13:25:59;15.70;29.30
69628;DHT22;56850;51.984;5.088;2023-04-03T13:28:31;15.80;29.50
69628;DHT22;56850;51.984;5.088;2023-04-03T13:33:35;16.00;29.30
69628;DHT22;56850;51.984;5.088;2023-04-03T13:36:26;16.10;29.40
69628;DHT22;56850;51.984;5.088;2023-04-03T13:39:17;16.10;29.30
69628;DHT22;56850;51.984;5.088;2023-04-03T13:41:53;16.10;29.50
69628;DHT22;56850;51.984;5.088;2023-04-03T13:46:55;16.30;29.70
69628;DHT22;56850;51.984;5.088;2023-04-03T13:49:38;16.30;29.40
69628;DHT22;56850;51.984;5.088;2023-04-03T13:52:32;16.30;29.00
69628;DHT22;56850;51.984;5.088;2023-04-03T13:58:00;16.40;29.20
69628;DHT22;56850;51.984;5.088;2023-04-03T14:02:57;16.40;29.50
69628;DHT22;56850;51.984;5.088;2023-04-03T14:05:24;16.40;29.80
69628;DHT22;56850;51.984;5.088;2023-04-03T14:07:54;16.40;29.80
69628;DHT22;56850;51.984;5.088;2023-04-03T14:10:22;16.40;29.50
69628;DHT22;56850;51.984;5.088;2023-04-03T14:12:49;16.50;29.40
69628;DHT22;56850;51.984;5.088;2023-04-03T14:15:24;16.50;29.40
69628;DHT22;56850;51.984;5.088;2023-04-03T14:17:52;16.50;29.40
69628;DHT22;56850;51.984;5.088;2023-04-03T14:20:22;16.50;29.50
69628;DHT22;56850;51.984;5.088;2023-04-03T14:22:49;16.60;29.80
69628;DHT22;56850;51.984;5.088;2023-04-03T14:25:18;16.70;29.80
69628;DHT22;56850;51.984;5.088;2023-04-03T14:27:48;16.70;29.70
69628;DHT22;56850;51.984;5.088;2023-04-03T14:32:46;16.60;29.40
69628;DHT22;56850;51.984;5.088;2023-04-03T14:35:15;16.70;29.60
69628;DHT22;56850;51.984;5.088;2023-04-03T14:37:42;16.80;29.40
69628;DHT22;56850;51.984;5.088;2023-04-03T14:40:13;16.80;29.20
69628;DHT22;56850;51.984;5.088;2023-04-03T14:42:41;16.80;29.40
69628;DHT22;56850;51.984;5.088;2023-04-03T14:45:11;16.80;29.60
69628;DHT22;56850;51.984;5.088;2023-04-03T14:47:44;16.90;29.80
69628;DHT22;56850;51.984;5.088;2023-04-03T14:50:16;16.80;29.40
69628;DHT22;56850;51.984;5.088;2023-04-03T14:52:44;16.80;28.70
69628;DHT22;56850;51.984;5.088;2023-04-03T14:55:16;16.60;29.30
69628;DHT22;56850;51.984;5.088;2023-04-03T14:57:51;16.60;29.70
69628;DHT22;56850;51.984;5.088;2023-04-03T15:00:21;16.70;29.90
69628;DHT22;56850;51.984;5.088;2023-04-03T15:02:48;16.70;29.50
69628;DHT22;56850;51.984;5.088;2023-04-03T15:05:16;16.60;29.40
69628;DHT22;56850;51.984;5.088;2023-04-03T15:07:50;16.50;29.70
69628;DHT22;56850;51.984;5.088;2023-04-03T15:10:22;16.50;29.90
69628;DHT22;56850;51.984;5.088;2023-04-03T15:12:51;16.40;29.60
69628;DHT22;56850;51.984;5.088;2023-04-03T15:15:20;16.40;29.70
69628;DHT22;56850;51.984;5.088;2023-04-03T15:17:51;16.40;29.90
69628;DHT22;56850;51.984;5.088;2023-04-03T15:20:24;16.40;29.90
69628;DHT22;56850;51.984;5.088;2023-04-03T15:22:51;16.50;30.30
69628;DHT22;56850;51.984;5.088;2023-04-03T15:25:18;16.50;30.10
69628;DHT22;56850;51.984;5.088;2023-04-03T15:27:45;16.50;30.30
69628;DHT22;56850;51.984;5.088;2023-04-03T15:30:17;16.50;29.90
69628;DHT22;56850;51.984;5.088;2023-04-03T15:32:45;16.40;29.60
69628;DHT22;56850;51.984;5.088;2023-04-03T15:35:12;16.40;30.10
69628;DHT22;56850;51.984;5.088;2023-04-03T15:37:39;16.50;30.40
69628;DHT22;56850;51.984;5.088;2023-04-03T15:40:07;16.50;30.60
69628;DHT22;56850;51.984;5.088;2023-04-03T15:42:34;16.50;30.50
69628;DHT22;56850;51.984;5.088;2023-04-03T15:45:01;16.50;30.20
69628;DHT22;56850;51.984;5.088;2023-04-03T15:47:29;16.40;30.20
69628;DHT22;56850;51.984;5.088;2023-04-03T15:49:56;16.40;30.00
69628;DHT22;56850;51.984;5.088;2023-04-03T15:52:23;16.30;30.10
69628;DHT22;56850;51.984;5.088;2023-04-03T15:54:50;16.30;29.70
69628;DHT22;56850;51.984;5.088;2023-04-03T15:57:17;16.20;29.60
69628;DHT22;56850;51.984;5.088;2023-04-03T15:59:44;16.10;29.60
69628;DHT22;56850;51.984;5.088;2023-04-03T16:02:12;16.00;29.60
69628;DHT22;56850;51.984;5.088;2023-04-03T16:04:40;15.90;30.00
69628;DHT22;56850;51.984;5.088;2023-04-03T16:07:07;15.90;30.00
69628;DHT22;56850;51.984;5.088;2023-04-03T16:09:35;15.80;29.90
69628;DHT22;56850;51.984;5.088;2023-04-03T16:12:02;15.70;30.20
69628;DHT22;56850;51.984;5.088;2023-04-03T16:16:58;15.70;30.30
69628;DHT22;56850;51.984;5.088;2023-04-03T16:19:25;15.60;30.00
69628;DHT22;56850;51.984;5.088;2023-04-03T16:21:54;15.50;30.40
69628;DHT22;56850;51.984;5.088;2023-04-03T16:24:22;15.40;30.60
69628;DHT22;56850;51.984;5.088;2023-04-03T16:26:49;15.30;30.60
69628;DHT22;56850;51.984;5.088;2023-04-03T16:29:16;15.10;30.80
69628;DHT22;56850;51.984;5.088;2023-04-03T16:31:43;15.00;31.10
69628;DHT22;56850;51.984;5.088;2023-04-03T16:34:10;15.00;31.30
69628;DHT22;56850;51.984;5.088;2023-04-03T16:36:37;14.90;31.50
69628;DHT22;56850;51.984;5.088;2023-04-03T16:39:04;14.90;31.70
69628;DHT22;56850;51.984;5.088;2023-04-03T16:41:31;14.80;31.90
69628;DHT22;56850;51.984;5.088;2023-04-03T16:43:58;14.80;32.30
69628;DHT22;56850;51.984;5.088;2023-04-03T16:46:26;14.70;32.40
69628;DHT22;56850;51.984;5.088;2023-04-03T16:48:53;14.60;32.50
69628;DHT22;56850;51.984;5.088;2023-04-03T16:51:20;14.50;32.80
69628;DHT22;56850;51.984;5.088;2023-04-03T16:53:47;14.50;33.00
69628;DHT22;56850;51.984;5.088;2023-04-03T16:56:14;14.40;33.10
69628;DHT22;56850;51.984;5.088;2023-04-03T16:58:41;14.30;33.40
69628;DHT22;56850;51.984;5.088;2023-04-03T17:01:10;14.30;33.40
69628;DHT22;56850;51.984;5.088;2023-04-03T17:03:37;14.20;33.30
69628;DHT22;56850;51.984;5.088;2023-04-03T17:06:04;14.10;33.40
69628;DHT22;56850;51.984;5.088;2023-04-03T17:08:31;14.00;33.40
69628;DHT22;56850;51.984;5.088;2023-04-03T17:10:58;13.90;33.20
69628;DHT22;56850;51.984;5.088;2023-04-03T17:13:25;13.80;33.30
69628;DHT22;56850;51.984;5.088;2023-04-03T17:15:58;13.70;33.40
69628;DHT22;56850;51.984;5.088;2023-04-03T17:18:26;13.60;33.80
69628;DHT22;56850;51.984;5.088;2023-04-03T17:20:53;13.50;34.00
69628;DHT22;56850;51.984;5.088;2023-04-03T17:23:21;13.40;34.10
69628;DHT22;56850;51.984;5.088;2023-04-03T17:25:49;13.30;34.30
69628;DHT22;56850;51.984;5.088;2023-04-03T17:28:16;13.20;34.40
69628;DHT22;56850;51.984;5.088;2023-04-03T17:30:43;13.10;34.50
69628;DHT22;56850;51.984;5.088;2023-04-03T17:33:10;13.00;34.60
69628;DHT22;56850;51.984;5.088;2023-04-03T17:35:37;12.90;34.90
69628;DHT22;56850;51.984;5.088;2023-04-03T17:38:04;12.90;35.20
69628;DHT22;56850;51.984;5.088;2023-04-03T17:40:31;12.80;35.20
69628;DHT22;56850;51.984;5.088;2023-04-03T17:42:58;12.80;35.50